Time;durP1;ratioP1;P1;durP2;ratioP2;P2;SDS_P1;SDS_P2;PMS_P1;PMS_P2;Temp;Humidity;BMP_temperature;BMP_pressure;BME280_temperature;BME280_humidity;BME280_pressure;Samples;Min_cycle;Max_cycle;Signal;HPM_P1;HPM_P2
2022/01/23 00:01:12;;;;;;;4.35;2.00;;;6.10;99.90;;;;;;5033384;28;20048;-72
2022/01/23 00:03:44;;;;;;;;;;;6.10;99.90;;;;;;5042317;28;20052;-72
2022/01/23 00:06:10;;;;;;;5.13;2.28;;;6.10;99.90;;;;;;5027602;28;19928;-72
2022/01/23 00:08:36;;;;;;;;;;;6.10;99.90;;;;;;5030255;28;20099;-72
2022/01/23 00:11:02;;;;;;;3.33;1.73;;;6.10;99.90;;;;;;5035635;28;20029;-72
2022/01/23 00:13:34;;;;;;;;;;;6.10;99.90;;;;;;5032036;28;20048;-72
2022/01/23 00:18:44;;;;;;;4.18;1.70;;;6.10;99.90;;;;;;5030284;28;20045;-72
2022/01/23 00:21:10;;;;;;;;;;;6.10;99.90;;;;;;5018570;28;20098;-72
2022/01/23 00:31:32;;;;;;;4.93;2.08;;;5.90;99.90;;;;;;5015877;28;20084;-73
2022/01/23 00:33:59;;;;;;;4.82;1.80;;;5.90;99.90;;;;;;5023047;28;20052;-73
2022/01/23 00:36:26;;;;;;;3.13;2.08;;;5.90;99.90;;;;;;5040494;28;20037;-73
2022/01/23 00:38:52;;;;;;;3.83;1.30;;;5.90;99.90;;;;;;5030599;28;20052;-73
2022/01/23 00:41:18;;;;;;;;;;;5.90;99.90;;;;;;5035117;28;20041;-73
2022/01/23 00:43:46;;;;;;;4.38;1.70;;;5.90;99.90;;;;;;5034613;28;20328;-73
2022/01/23 00:49:24;;;;;;;3.63;1.80;;;5.90;99.90;;;;;;5031888;28;19925;-72
2022/01/23 00:51:40;;;;;;;5.10;2.20;;;5.80;99.90;;;;;;5032642;28;20046;-73
2022/01/23 00:54:09;;;;;;;4.88;1.95;;;5.80;99.90;;;;;;5014866;28;20178;-73
2022/01/23 00:56:35;;;;;;;5.85;2.30;;;5.80;99.90;;;;;;5015038;28;20053;-74
2022/01/23 00:59:01;;;;;;;;;;;5.80;99.90;;;;;;5015833;28;20121;-73
2022/01/23 01:01:27;;;;;;;10.27;4.20;;;5.80;99.90;;;;;;5014584;28;19966;-73
2022/01/23 01:03:52;;;;;;;;;;;5.80;99.90;;;;;;5014746;28;20088;-73
2022/01/23 01:06:18;;;;;;;6.97;2.58;;;5.70;99.90;;;;;;5014170;28;20376;-73
2022/01/23 01:08:46;;;;;;;;;;;5.80;99.90;;;;;;5032111;28;20400;-73
2022/01/23 01:35:30;;;;;;;5.25;2.30;;;5.70;99.90;;;;;;5051984;28;20107;-73
2022/01/23 01:37:56;;;;;;;4.63;2.30;;;5.70;99.90;;;;;;5027887;28;20044;-74
2022/01/23 01:40:22;;;;;;;;;;;5.70;99.90;;;;;;5014430;28;20041;-74
2022/01/23 01:42:48;;;;;;;4.17;2.07;;;5.70;99.90;;;;;;5015038;28;19922;-73
2022/01/23 01:45:19;;;;;;;;;;;5.70;99.90;;;;;;5014328;28;20667;-74
2022/01/23 01:47:50;;;;;;;4.13;1.88;;;5.70;99.90;;;;;;5014692;28;20034;-74
2022/01/23 01:50:15;;;;;;;4.05;1.85;;;5.70;99.90;;;;;;5032148;28;20064;-74
2022/01/23 01:52:44;;;;;;;;;;;5.70;99.90;;;;;;5015572;28;20049;-74
2022/01/23 01:55:16;;;;;;;3.95;1.90;;;5.70;99.90;;;;;;5014104;28;19921;-74
2022/01/23 01:57:51;;;;;;;5.18;2.15;;;5.70;99.90;;;;;;5014470;28;20046;-74
2022/01/23 02:00:43;;;;;;;3.80;2.42;;;5.70;99.90;;;;;;5013786;28;20115;-74
2022/01/23 02:08:38;;;;;;;4.05;2.00;;;5.70;99.90;;;;;;5016723;28;20046;-73
2022/01/23 02:11:16;;;;;;;5.40;2.28;;;5.70;99.90;;;;;;5018348;28;20049;-74
2022/01/23 02:13:50;;;;;;;4.57;2.00;;;5.80;99.90;;;;;;5021313;28;20462;-72
2022/01/23 02:16:40;;;;;;;4.57;1.77;;;5.70;99.90;;;;;;5035578;28;20041;-72
2022/01/23 02:22:33;;;;;;;2.90;1.58;;;5.80;99.90;;;;;;5035548;28;20045;-72
2022/01/23 02:52:30;;;;;;;4.68;1.95;;;5.90;99.90;;;;;;5037265;28;20378;-72
2022/01/23 02:54:58;;;;;;;4.30;2.00;;;5.90;99.90;;;;;;5055422;28;20158;-72
2022/01/23 03:00:32;;;;;;;5.93;1.98;;;5.90;99.90;;;;;;5035309;28;20140;-72
2022/01/23 03:03:09;;;;;;;5.32;1.95;;;5.80;99.90;;;;;;5036454;28;20052;-72
2022/01/23 03:05:37;;;;;;;3.75;2.08;;;5.80;99.90;;;;;;5037187;28;20458;-72
2022/01/23 03:13:37;;;;;;;;;;;5.80;99.90;;;;;;5037448;28;20057;-73
2022/01/23 03:31:41;;;;;;;6.50;3.35;;;5.80;99.90;;;;;;5016186;28;20046;-72
2022/01/23 03:34:07;;;;;;;6.10;2.60;;;5.80;99.90;;;;;;5034309;28;20049;-72
2022/01/23 03:36:33;;;;;;;;;;;5.70;99.90;;;;;;5018169;28;20045;-72
2022/01/23 03:38:58;;;;;;;7.13;3.38;;;5.70;99.90;;;;;;5016162;28;19924;-72
2022/01/23 03:41:24;;;;;;;;;;;5.70;99.90;;;;;;5034233;28;20057;-72
2022/01/23 03:43:49;;;;;;;4.88;2.95;;;5.70;99.90;;;;;;5034289;28;19925;-72
2022/01/23 03:51:15;;;;;;;18.25;4.35;;;5.60;99.90;;;;;;5016999;28;20144;-72
2022/01/23 03:53:41;;;;;;;6.63;3.10;;;5.60;99.90;;;;;;5016122;28;20049;-72
2022/01/23 03:56:08;;;;;;;16.35;3.83;;;5.60;99.90;;;;;;5015782;28;20064;-72
2022/01/23 03:58:34;;;;;;;23.55;4.10;;;5.50;99.90;;;;;;5024519;28;20037;-72
2022/01/23 04:01:00;;;;;;;10.00;3.50;;;5.50;99.90;;;;;;5053161;28;20053;-72
2022/01/23 04:03:26;;;;;;;6.72;2.70;;;5.50;99.90;;;;;;5053306;28;20412;-73
2022/01/23 04:05:55;;;;;;;3.95;2.28;;;5.50;99.90;;;;;;5034178;28;20044;-73
2022/01/23 04:08:21;;;;;;;4.43;2.60;;;5.50;99.90;;;;;;5053727;28;20401;-73
2022/01/23 04:10:46;;;;;;;;;;;5.40;99.90;;;;;;5036477;28;20045;-72
2022/01/23 05:01:26;;;;;;;2.25;1.23;;;5.40;99.90;;;;;;5034428;28;20053;-73
2022/01/23 05:06:44;;;;;;;2.70;1.00;;;5.40;99.90;;;;;;5031281;28;20049;-73
2022/01/23 05:09:11;;;;;;;2.25;1.20;;;5.40;99.90;;;;;;5032700;28;20044;-73
2022/01/23 05:11:43;;;;;;;3.05;1.27;;;5.40;99.90;;;;;;5031145;28;20065;-73
2022/01/23 05:14:09;;;;;;;2.47;1.20;;;5.40;99.90;;;;;;5012739;28;20050;-73
2022/01/23 05:16:35;;;;;;;3.58;1.52;;;5.40;99.90;;;;;;5011255;28;20056;-73
2022/01/23 05:19:02;;;;;;;;;;;5.40;99.90;;;;;;5013616;28;20042;-72
2022/01/23 05:24:20;;;;;;;2.42;1.15;;;5.50;99.90;;;;;;5012941;28;20557;-73
2022/01/23 05:26:46;;;;;;;3.53;1.30;;;5.50;99.90;;;;;;5011355;28;20076;-73
2022/01/23 05:29:13;;;;;;;2.63;1.30;;;5.40;99.90;;;;;;5011170;28;20049;-73
2022/01/23 05:31:40;;;;;;;2.25;1.20;;;5.40;99.90;;;;;;5011293;28;20042;-72
2022/01/23 05:34:06;;;;;;;2.22;1.30;;;5.40;99.90;;;;;;5024372;28;20088;-73
2022/01/23 05:36:32;;;;;;;2.28;1.15;;;5.50;99.90;;;;;;5031084;28;20096;-73
2022/01/23 05:38:59;;;;;;;4.65;1.40;;;5.50;99.90;;;;;;5032150;28;20041;-73
2022/01/23 05:41:27;;;;;;;3.05;1.50;;;5.50;99.90;;;;;;5032170;28;20489;-73
2022/01/23 05:43:55;;;;;;;2.78;1.40;;;5.50;99.90;;;;;;5035310;28;20041;-73
2022/01/23 05:46:21;;;;;;;;;;;5.50;99.90;;;;;;5034627;28;20041;-73
2022/01/23 05:48:46;;;;;;;3.70;1.83;;;5.60;99.90;;;;;;5033711;28;19921;-73
2022/01/23 05:51:12;;;;;;;;;;;5.50;99.90;;;;;;5036634;28;20045;-73
2022/01/23 05:53:41;;;;;;;5.43;2.17;;;5.60;99.90;;;;;;5034538;28;19921;-73
2022/01/23 05:56:07;;;;;;;5.75;2.50;;;5.60;99.90;;;;;;5034931;28;20451;-73
2022/01/23 05:58:32;;;;;;;;;;;5.50;99.90;;;;;;5036052;28;20045;-73
2022/01/23 06:00:58;;;;;;;4.22;2.40;;;5.50;99.90;;;;;;5036417;28;20348;-73
2022/01/23 06:03:24;;;;;;;;;;;5.50;99.90;;;;;;5032929;28;20076;-73
2022/01/23 06:05:49;;;;;;;4.55;2.03;;;5.50;99.90;;;;;;5034178;28;19928;-73
2022/01/23 06:08:15;;;;;;;;;;;5.50;99.90;;;;;;5034738;28;20405;-73
2022/01/23 06:10:54;;;;;;;3.80;2.10;;;5.50;99.90;;;;;;5035149;28;19986;-73
2022/01/23 06:13:32;;;;;;;3.53;1.80;;;5.40;99.90;;;;;;5034468;28;20057;-73
2022/01/23 06:15:58;;;;;;;3.90;2.22;;;5.40;99.90;;;;;;5035987;28;20048;-73
2022/01/23 06:18:24;;;;;;;;;;;5.40;99.90;;;;;;5034377;28;20049;-73
2022/01/23 06:20:50;;;;;;;4.10;2.08;;;5.50;99.90;;;;;;5034290;28;19924;-73
2022/01/23 06:23:15;;;;;;;;;;;5.40;99.90;;;;;;5034590;28;20046;-73
2022/01/23 06:25:43;;;;;;;4.40;2.38;;;5.40;99.90;;;;;;5034347;28;20028;-73
2022/01/23 06:28:09;;;;;;;5.25;2.13;;;5.40;99.90;;;;;;5033802;28;20041;-73
2022/01/23 06:30:39;;;;;;;3.45;1.73;;;5.40;99.90;;;;;;5033963;28;20497;-73
2022/01/23 06:33:06;;;;;;;4.00;2.00;;;5.40;99.90;;;;;;5034530;28;20049;-73
2022/01/23 06:35:32;;;;;;;4.78;2.08;;;5.40;99.90;;;;;;5033703;28;20037;-73
2022/01/23 06:37:58;;;;;;;3.67;1.88;;;5.40;99.90;;;;;;5034164;28;20041;-73
2022/01/23 06:40:23;;;;;;;;;;;5.40;99.90;;;;;;5022755;28;20042;-73
2022/01/23 06:42:49;;;;;;;4.88;2.38;;;5.50;99.90;;;;;;5014099;28;19921;-73
2022/01/23 06:45:14;;;;;;;;;;;5.40;99.90;;;;;;5014342;28;20477;-73
2022/01/23 06:47:40;;;;;;;3.40;1.65;;;5.50;99.90;;;;;;5014852;28;19966;-73
2022/01/23 06:50:06;;;;;;;;;;;5.40;99.90;;;;;;5013956;28;20128;-73
2022/01/23 06:52:31;;;;;;;2.78;1.50;;;5.40;99.90;;;;;;5013507;28;19921;-73
2022/01/23 06:54:57;;;;;;;;;;;5.40;99.90;;;;;;5014713;28;20124;-73
2022/01/23 06:57:22;;;;;;;3.95;1.80;;;5.40;99.90;;;;;;5013817;28;20292;-73
2022/01/23 06:59:49;;;;;;;;;;;5.40;99.90;;;;;;5014053;28;20153;-73
2022/01/23 07:02:14;;;;;;;3.10;1.70;;;5.40;99.90;;;;;;5014907;28;19925;-73
2022/01/23 07:04:40;;;;;;;;;;;5.40;99.90;;;;;;5017795;28;20052;-73
2022/01/23 07:07:06;;;;;;;3.90;1.88;;;5.40;99.90;;;;;;5016728;28;19925;-73
2022/01/23 07:09:32;;;;;;;5.55;1.88;;;5.40;99.90;;;;;;5016632;28;20041;-73
2022/01/23 07:11:58;;;;;;;;;;;5.40;99.90;;;;;;5021722;28;20087;-73
2022/01/23 07:14:23;;;;;;;3.75;2.13;;;5.40;99.90;;;;;;5036642;28;19947;-73
2022/01/23 07:16:49;;;;;;;;;;;5.40;99.90;;;;;;5036689;28;20386;-73
2022/01/23 07:19:15;;;;;;;4.90;2.33;;;5.40;99.90;;;;;;5036162;28;19972;-73
2022/01/23 07:21:40;;;;;;;;;;;5.40;99.90;;;;;;5035881;28;20124;-72
2022/01/23 07:24:06;;;;;;;5.13;2.15;;;5.40;99.90;;;;;;5035619;28;19921;-73
2022/01/23 07:26:33;;;;;;;;;;;5.50;99.90;;;;;;5021560;28;20049;-73
2022/01/23 07:29:01;;;;;;;5.10;2.33;;;5.40;99.90;;;;;;5034455;28;20364;-73
2022/01/23 07:34:01;;;;;;;5.00;2.70;;;5.40;99.90;;;;;;5016495;28;20053;-73
2022/01/23 07:36:27;;;;;;;6.55;2.88;;;5.40;99.90;;;;;;5017049;28;20049;-73
2022/01/23 07:38:53;;;;;;;;;;;5.50;99.90;;;;;;5016680;28;20056;-73
2022/01/23 07:41:18;;;;;;;7.25;3.22;;;5.40;99.90;;;;;;5033771;28;19921;-72
2022/01/23 07:43:53;;;;;;;;;;;5.40;99.90;;;;;;5016958;28;20048;-72
2022/01/23 07:46:19;;;;;;;8.60;3.20;;;5.40;99.90;;;;;;5016304;28;20051;-74
2022/01/23 07:48:45;;;;;;;6.13;3.20;;;5.50;99.90;;;;;;5016086;28;20124;-74
2022/01/23 07:51:10;;;;;;;;;;;5.60;99.90;;;;;;5015715;28;20128;-77
2022/01/23 07:53:36;;;;;;;6.65;3.13;;;5.60;99.90;;;;;;5016358;28;19980;-72
2022/01/23 07:56:02;;;;;;;;;;;5.60;99.90;;;;;;5016474;28;20045;-76
2022/01/23 07:58:29;;;;;;;7.73;3.33;;;6.00;99.90;;;;;;5015536;28;19921;-72
2022/01/23 08:00:55;;;;;;;6.82;3.40;;;5.50;99.90;;;;;;5034679;28;20303;-73
2022/01/23 08:03:20;;;;;;;;;;;5.50;99.90;;;;;;5017039;28;20053;-72
2022/01/23 08:05:46;;;;;;;6.20;3.63;;;5.50;99.90;;;;;;5040753;28;19936;-73
2022/01/23 08:08:11;;;;;;;;;;;5.50;99.90;;;;;;5026658;28;20048;-74
2022/01/23 08:10:38;;;;;;;8.63;4.03;;;5.50;99.90;;;;;;5025132;28;20269;-73
2022/01/23 08:13:05;;;;;;;9.25;4.53;;;5.60;99.90;;;;;;5019192;28;20057;-74
2022/01/23 08:15:32;;;;;;;8.63;3.90;;;5.60;99.90;;;;;;5016086;28;20116;-74
2022/01/23 08:18:03;;;;;;;9.20;4.00;;;5.60;99.90;;;;;;5015397;28;20048;-74
2022/01/23 08:20:29;;;;;;;7.90;3.95;;;5.70;99.90;;;;;;5033916;28;20090;-73
2022/01/23 08:22:55;;;;;;;8.07;4.07;;;5.70;99.90;;;;;;5026351;28;20428;-73
2022/01/23 08:25:20;;;;;;;;;;;5.70;99.90;;;;;;5025885;28;20037;-73
2022/01/23 08:27:46;;;;;;;8.95;4.40;;;5.70;99.90;;;;;;5032487;28;19974;-74
2022/01/23 08:30:13;;;;;;;;;;;5.70;99.90;;;;;;5031955;28;20534;-74
2022/01/23 08:32:39;;;;;;;7.90;4.45;;;5.70;99.90;;;;;;5035395;28;19920;-74
2022/01/23 08:35:05;;;;;;;8.32;4.43;;;5.70;99.90;;;;;;5051152;28;20045;-77
2022/01/23 08:37:31;;;;;;;8.73;4.38;;;5.70;99.90;;;;;;5053198;28;20481;-74
2022/01/23 08:39:57;;;;;;;;;;;5.70;99.90;;;;;;5053450;28;20033;-74
2022/01/23 08:42:23;;;;;;;9.57;4.95;;;5.70;99.90;;;;;;5052311;28;20402;-76
2022/01/23 08:44:50;;;;;;;;;;;5.70;99.90;;;;;;5026778;28;20080;-76
2022/01/23 08:47:17;;;;;;;;;;;5.80;99.90;;;;;;5015150;28;19928;-76
2022/01/23 08:49:48;;;;;;;8.55;4.32;;;5.80;99.90;;;;;;5021577;28;19965;-74
2022/01/23 08:52:21;;;;;;;14.30;7.35;;;5.80;99.90;;;;;;5050870;28;20041;-77
2022/01/23 08:54:51;;;;;;;16.65;8.60;;;7.30;99.90;;;;;;5024479;28;20052;-77
2022/01/23 08:57:18;;;;;;;19.15;9.48;;;5.80;99.90;;;;;;5015092;28;20486;-77
2022/01/23 08:59:44;;;;;;;14.43;6.75;;;5.80;99.90;;;;;;5023804;28;20090;-81
2022/01/23 09:02:09;;;;;;;;;;;5.80;99.90;;;;;;5034006;28;20036;-80
2022/01/23 09:04:38;;;;;;;10.35;5.20;;;5.90;99.90;;;;;;5016396;28;19921;-77
2022/01/23 09:07:04;;;;;;;11.50;5.05;;;5.90;99.90;;;;;;5036946;28;20044;-74
2022/01/23 09:09:32;;;;;;;;;;;5.90;99.90;;;;;;5052155;28;20041;-75
2022/01/23 09:12:03;;;;;;;8.27;4.57;;;5.90;99.90;;;;;;5052480;28;19920;-73
2022/01/23 09:14:29;;;;;;;7.63;4.43;;;6.00;99.90;;;;;;5034541;28;20091;-70
2022/01/23 09:16:54;;;;;;;;;;;5.90;99.90;;;;;;5033815;28;20480;-72
2022/01/23 09:19:22;;;;;;;8.32;4.97;;;6.00;99.90;;;;;;5034086;28;19925;-78
2022/01/23 09:21:49;;;;;;;8.23;4.38;;;6.00;99.90;;;;;;5038372;28;20470;-74
2022/01/23 09:24:17;;;;;;;7.13;4.30;;;6.00;99.90;;;;;;5032432;28;20419;-73
2022/01/23 09:26:45;;;;;;;7.85;4.32;;;6.10;99.90;;;;;;5037054;28;20483;-71
2022/01/23 09:29:17;;;;;;;9.50;5.07;;;6.00;99.90;;;;;;5033871;28;20045;-72
2022/01/23 09:31:49;;;;;;;8.40;4.32;;;6.10;99.90;;;;;;5051786;28;20045;-75
2022/01/23 09:34:21;;;;;;;8.38;3.88;;;6.10;99.90;;;;;;5052181;28;20049;-73
2022/01/23 09:36:47;;;;;;;6.95;4.15;;;6.10;99.90;;;;;;5033622;28;20061;-72
2022/01/23 09:39:20;;;;;;;7.57;4.18;;;6.20;99.90;;;;;;5047257;28;20041;-72
2022/01/23 09:41:51;;;;;;;10.02;4.70;;;6.20;99.90;;;;;;5024204;28;20046;-72
2022/01/23 09:44:19;;;;;;;9.23;4.57;;;6.20;99.90;;;;;;5052120;28;20060;-80
2022/01/23 09:46:47;;;;;;;9.40;5.00;;;7.00;99.90;;;;;;5015759;28;20088;-75
2022/01/23 09:49:14;;;;;;;9.10;4.57;;;6.20;99.90;;;;;;5048153;28;20041;-72
2022/01/23 09:51:49;;;;;;;10.55;4.70;;;6.30;99.90;;;;;;5037856;28;20120;-78
2022/01/23 09:54:16;;;;;;;8.73;4.30;;;6.30;99.90;;;;;;5041272;28;20048;-80
2022/01/23 09:56:43;;;;;;;7.90;4.57;;;6.80;99.90;;;;;;5028989;28;20045;-74
2022/01/23 09:59:11;;;;;;;8.27;4.30;;;6.30;99.90;;;;;;5035984;28;20075;-76
2022/01/23 10:01:41;;;;;;;9.43;5.22;;;6.50;99.90;;;;;;5019564;28;20480;-79
2022/01/23 10:04:10;;;;;;;13.20;5.93;;;6.40;99.90;;;;;;5024121;28;20085;-74
2022/01/23 10:06:36;;;;;;;7.38;4.80;;;5.10;99.90;;;;;;5044693;28;20048;-75
2022/01/23 10:09:05;;;;;;;;;;;6.50;99.90;;;;;;5017882;28;20037;-73
2022/01/23 10:11:36;;;;;;;12.10;4.75;;;7.30;99.90;;;;;;5033960;28;19928;-77
2022/01/23 10:14:02;;;;;;;7.55;4.45;;;6.50;99.90;;;;;;5026479;28;20107;-77
2022/01/23 10:16:28;;;;;;;;;;;6.60;99.90;;;;;;5027903;28;20128;-75
2022/01/23 10:18:54;;;;;;;9.35;4.47;;;6.60;99.90;;;;;;5023023;28;19983;-76
2022/01/23 10:21:19;;;;;;;;;;;6.60;99.90;;;;;;5020925;28;20476;-79
2022/01/23 10:23:46;;;;;;;9.27;5.10;;;6.60;99.90;;;;;;5030652;28;19921;-79
2022/01/23 10:26:14;;;;;;;8.07;4.38;;;6.70;99.90;;;;;;5016757;28;20049;-79
2022/01/23 10:28:39;;;;;;;11.50;5.75;;;6.60;99.90;;;;;;5027278;28;20044;-76
2022/01/23 10:31:05;;;;;;;;;;;6.60;99.90;;;;;;5046534;28;20049;-79
2022/01/23 10:33:40;;;;;;;8.45;4.85;;;6.70;99.90;;;;;;5022133;28;19921;-78
2022/01/23 10:36:17;;;;;;;7.15;4.47;;;6.60;99.90;;;;;;5033449;28;20069;-78
2022/01/23 10:39:00;;;;;;;10.93;7.30;;;6.60;99.90;;;;;;5026006;28;20045;-77
2022/01/23 10:47:47;;;;;;;10.23;6.68;;;6.70;99.90;;;;;;5023866;28;20489;-73
2022/01/23 10:50:03;;;;;;;10.48;6.70;;;6.70;99.90;;;;;;5019429;28;20128;-73
2022/01/23 10:52:33;;;;;;;11.70;5.60;;;6.70;99.90;;;;;;5030990;28;20090;-76
2022/01/23 10:55:03;;;;;;;9.95;5.30;;;6.80;99.90;;;;;;5026787;28;20041;-74
2022/01/23 10:57:37;;;;;;;9.50;5.07;;;6.80;99.90;;;;;;5040301;28;20049;-76
2022/01/23 11:00:06;;;;;;;9.07;4.97;;;6.80;99.90;;;;;;5033395;28;20540;-76
2022/01/23 11:02:32;;;;;;;8.88;5.40;;;6.90;99.90;;;;;;5022845;28;20073;-76
2022/01/23 11:05:00;;;;;;;;;;;6.80;99.90;;;;;;5027252;28;20140;-79
2022/01/23 11:07:27;;;;;;;8.82;5.45;;;6.80;99.90;;;;;;5029866;28;20333;-77
2022/01/23 11:09:59;;;;;;;11.05;5.10;;;6.80;99.90;;;;;;5032955;28;20111;-76
2022/01/23 11:17:20;;;;;;;10.05;5.47;;;6.80;99.90;;;;;;5021622;28;20087;-78
2022/01/23 11:18:22;;;;;;;10.50;6.28;;;6.80;99.90;;;;;;5018076;28;20096;-80
2022/01/23 11:20:51;;;;;;;10.65;6.18;;;7.00;99.90;;;;;;5025543;28;20040;-79
2022/01/23 11:23:22;;;;;;;11.60;6.05;;;7.00;99.90;;;;;;5041524;28;20044;-77
2022/01/23 11:25:57;;;;;;;9.40;5.45;;;6.90;99.90;;;;;;5032797;28;20045;-75
2022/01/23 11:28:31;;;;;;;12.07;6.22;;;6.90;99.90;;;;;;5021151;28;20566;-78
2022/01/23 11:30:58;;;;;;;9.88;5.70;;;6.90;99.90;;;;;;5025972;28;20057;-78
2022/01/23 11:33:25;;;;;;;8.70;5.57;;;6.90;99.90;;;;;;5029274;28;20039;-84
2022/01/23 11:35:51;;;;;;;11.32;5.90;;;6.90;99.90;;;;;;5019629;28;20081;-75
2022/01/23 11:38:20;;;;;;;10.45;6.53;;;6.90;99.90;;;;;;5030879;28;20570;-72
2022/01/23 11:54:48;;;;;;;10.35;5.00;;;7.00;99.90;;;;;;5019933;28;20057;-80
2022/01/23 11:57:32;;;;;;;9.70;5.72;;;7.00;99.90;;;;;;5018874;28;20049;-77
2022/01/23 12:00:02;;;;;;;9.05;4.85;;;7.00;99.90;;;;;;5032346;28;20396;-77
2022/01/23 12:02:36;;;;;;;8.40;4.65;;;7.00;99.90;;;;;;5021009;28;20488;-76
2022/01/23 12:05:11;;;;;;;9.82;4.95;;;7.00;99.90;;;;;;5024858;28;20057;-77
2022/01/23 12:07:39;;;;;;;9.18;5.45;;;6.20;99.90;;;;;;5017731;28;20172;-78
2022/01/23 12:10:17;;;;;;;10.10;6.20;;;7.00;99.90;;;;;;5031907;28;20188;-80
2022/01/23 12:12:52;;;;;;;8.70;4.45;;;7.00;99.90;;;;;;5017613;28;20053;-82
2022/01/23 12:18:37;;;;;;;9.07;3.85;;;7.10;99.90;;;;;;4976592;28;20113;-77
2022/01/23 12:21:02;;;;;;;;;;;7.00;99.90;;;;;;4990478;28;20038;-78
2022/01/23 12:23:28;;;;;;;8.75;3.63;;;7.00;99.90;;;;;;5002176;28;19921;-78
2022/01/23 12:25:55;;;;;;;;;;;7.10;99.90;;;;;;5022773;28;20046;-83
2022/01/23 12:28:42;;;;;;;7.93;3.80;;;7.10;99.90;;;;;;5031510;28;20011;-86
2022/01/23 12:31:23;;;;;;;6.80;3.75;;;7.10;99.90;;;;;;5015581;28;20037;-81
2022/01/23 12:33:51;;;;;;;7.60;3.95;;;7.60;99.90;;;;;;5024509;28;20041;-80
2022/01/23 12:36:17;;;;;;;6.38;4.13;;;7.00;99.90;;;;;;5023070;28;20106;-77
2022/01/23 12:38:44;;;;;;;;;;;7.00;99.90;;;;;;5021873;28;20489;-75
2022/01/23 12:41:23;;;;;;;10.75;6.05;;;7.00;99.90;;;;;;5040025;28;19928;-77
2022/01/23 12:43:51;;;;;;;12.07;7.05;;;7.00;99.90;;;;;;5048027;28;20060;-75
2022/01/23 12:46:35;;;;;;;12.73;6.65;;;7.10;99.90;;;;;;5017927;28;20412;-75
2022/01/23 12:49:16;;;;;;;10.95;5.88;;;7.10;99.90;;;;;;5029491;28;20492;-72
2022/01/23 12:51:42;;;;;;;14.50;9.50;;;7.10;99.90;;;;;;5020304;28;20053;-76
2022/01/23 12:54:18;;;;;;;12.45;7.10;;;7.00;99.90;;;;;;5030503;28;20107;-75
2022/01/23 12:56:46;;;;;;;8.65;4.63;;;7.10;99.90;;;;;;5020808;28;20037;-76
2022/01/23 12:59:21;;;;;;;12.75;6.88;;;7.10;99.90;;;;;;5025942;28;20045;-78
2022/01/23 13:01:48;;;;;;;8.82;5.05;;;7.10;99.90;;;;;;5028987;28;20045;-77
2022/01/23 13:04:15;;;;;;;;;;;7.10;99.90;;;;;;5012803;28;20088;-77
2022/01/23 13:06:51;;;;;;;5.95;4.00;;;7.10;99.90;;;;;;5019167;28;20361;-74
2022/01/23 13:26:35;;;;;;;7.25;4.25;;;7.10;99.90;;;;;;5022411;28;20044;-80
2022/01/23 13:31:55;;;;;;;8.13;4.88;;;7.20;99.90;;;;;;5031171;28;20475;-81
2022/01/23 13:34:29;;;;;;;9.48;5.50;;;7.90;99.90;;;;;;5031983;28;20130;-76
2022/01/23 13:36:59;;;;;;;8.23;4.97;;;7.10;99.90;;;;;;5017862;28;20088;-81
2022/01/23 13:39:28;;;;;;;8.10;4.70;;;7.10;99.90;;;;;;5017557;28;20468;-74
2022/01/23 13:42:04;;;;;;;9.88;5.57;;;7.10;99.90;;;;;;5027122;28;20476;-79
2022/01/23 13:52:42;;;;;;;10.52;5.18;;;7.10;99.90;;;;;;5026762;28;20057;-76
2022/01/23 13:58:25;;;;;;;8.63;4.93;;;7.00;99.90;;;;;;5020678;28;20045;-75
2022/01/23 14:00:57;;;;;;;7.35;4.25;;;7.00;99.90;;;;;;5018702;28;20050;-74
2022/01/23 14:03:26;;;;;;;9.60;6.93;;;6.40;99.90;;;;;;5037053;28;20049;-74
2022/01/23 14:05:52;;;;;;;;;;;7.00;99.90;;;;;;5029693;28;20504;-74
2022/01/23 14:08:19;;;;;;;10.85;6.80;;;7.00;99.90;;;;;;5027909;28;19932;-75
2022/01/23 14:10:45;;;;;;;11.07;5.43;;;7.00;99.90;;;;;;5021298;28;20049;-76
2022/01/23 14:13:14;;;;;;;;;;;7.00;99.90;;;;;;5034137;28;20068;-74
2022/01/23 14:15:49;;;;;;;10.43;4.85;;;7.00;99.90;;;;;;5023656;28;19927;-78
2022/01/23 14:18:23;;;;;;;8.40;4.60;;;7.00;99.90;;;;;;5026192;28;20046;-77
2022/01/23 14:20:58;;;;;;;9.07;4.47;;;7.00;99.90;;;;;;5033063;28;20492;-76
2022/01/23 14:23:25;;;;;;;9.68;4.47;;;7.00;99.90;;;;;;5020784;28;20078;-75
2022/01/23 14:25:58;;;;;;;7.15;4.10;;;7.00;99.90;;;;;;5027175;28;20045;-74
2022/01/23 14:28:44;;;;;;;7.53;4.15;;;7.00;99.90;;;;;;5017963;28;20047;-74
2022/01/23 14:31:17;;;;;;;9.37;4.90;;;7.00;99.90;;;;;;5021477;28;20065;-74
2022/01/23 14:33:43;;;;;;;9.40;4.75;;;7.00;99.90;;;;;;5026214;28;20673;-76
2022/01/23 14:36:12;;;;;;;;;;;6.90;99.90;;;;;;5027265;28;20124;-75
2022/01/23 14:38:38;;;;;;;9.73;5.25;;;6.90;99.90;;;;;;5030914;28;19921;-76
2022/01/23 14:41:11;;;;;;;;;;;6.90;99.90;;;;;;5029746;28;20542;-77
2022/01/23 14:43:41;;;;;;;8.30;4.60;;;6.90;99.90;;;;;;5029737;28;19920;-74
2022/01/23 14:46:08;;;;;;;9.63;4.78;;;6.90;99.90;;;;;;5030065;28;20120;-74
2022/01/23 14:48:44;;;;;;;7.47;4.45;;;8.30;99.90;;;;;;5034629;28;20130;-74
2022/01/23 14:51:10;;;;;;;7.97;4.07;;;6.90;99.90;;;;;;5034940;28;20040;-74
2022/01/23 14:53:39;;;;;;;9.60;4.25;;;6.90;99.90;;;;;;5018133;28;20132;-77
2022/01/23 14:56:09;;;;;;;7.30;4.18;;;6.80;99.90;;;;;;5035927;28;20099;-71
2022/01/23 14:58:36;;;;;;;7.35;4.07;;;6.80;99.90;;;;;;5043084;28;20167;-77
2022/01/23 15:01:10;;;;;;;5.80;3.45;;;6.80;99.90;;;;;;5029899;28;20124;-74
2022/01/23 15:03:36;;;;;;;8.55;4.75;;;6.80;99.90;;;;;;5050823;28;20089;-74
2022/01/23 15:06:02;;;;;;;8.27;4.25;;;6.80;99.90;;;;;;5019260;28;20045;-73
2022/01/23 15:08:29;;;;;;;9.57;4.32;;;6.80;99.90;;;;;;5017960;28;20060;-74
2022/01/23 15:11:00;;;;;;;9.00;4.88;;;6.80;99.90;;;;;;5025831;28;20053;-73
2022/01/23 15:13:27;;;;;;;7.68;4.35;;;6.80;99.90;;;;;;5031888;28;20547;-74
2022/01/23 15:15:54;;;;;;;10.10;6.15;;;6.80;99.90;;;;;;5017970;28;20045;-77
2022/01/23 15:18:21;;;;;;;11.07;7.47;;;7.90;99.90;;;;;;5032509;28;20053;-76
2022/01/23 15:20:49;;;;;;;9.63;6.68;;;6.70;99.90;;;;;;5028053;28;20044;-77
2022/01/23 15:23:16;;;;;;;8.98;5.47;;;6.70;99.90;;;;;;5029099;28;20049;-76
2022/01/23 15:25:44;;;;;;;8.63;5.22;;;6.70;99.90;;;;;;5018458;28;20043;-76
2022/01/23 15:28:10;;;;;;;8.90;4.78;;;6.60;99.90;;;;;;5021895;28;20428;-74
2022/01/23 15:30:36;;;;;;;8.52;4.55;;;6.60;99.90;;;;;;5025460;28;20045;-76
2022/01/23 15:33:04;;;;;;;7.93;4.60;;;6.60;99.90;;;;;;5023686;28;20444;-82
2022/01/23 15:35:30;;;;;;;6.53;4.35;;;6.60;99.90;;;;;;5031466;28;20044;-77
2022/01/23 15:37:59;;;;;;;7.28;4.15;;;6.60;99.90;;;;;;5035729;28;20438;-77
2022/01/23 15:40:24;;;;;;;7.55;4.18;;;6.60;99.90;;;;;;5033340;28;20501;-80
2022/01/23 15:42:51;;;;;;;;;;;6.60;99.90;;;;;;5022974;28;20050;-73
2022/01/23 15:45:19;;;;;;;8.82;4.00;;;6.60;99.90;;;;;;5032733;28;19921;-73
2022/01/23 15:47:45;;;;;;;6.90;3.80;;;6.60;99.90;;;;;;5021695;28;20057;-77
2022/01/23 15:50:14;;;;;;;7.35;3.95;;;6.60;99.90;;;;;;5021943;28;20496;-80
2022/01/23 15:52:40;;;;;;;7.80;4.63;;;7.30;99.90;;;;;;5034834;28;20045;-71
2022/01/23 15:55:08;;;;;;;7.70;4.60;;;6.60;99.90;;;;;;5037896;28;20401;-75
2022/01/23 15:57:34;;;;;;;8.55;4.32;;;6.60;99.90;;;;;;5031353;28;20033;-72
2022/01/23 15:59:59;;;;;;;;;;;6.60;99.90;;;;;;5021930;28;20045;-74
2022/01/23 16:02:25;;;;;;;6.18;3.63;;;6.50;99.90;;;;;;5025749;28;19958;-69
2022/01/23 16:04:51;;;;;;;;;;;6.50;99.90;;;;;;5020153;28;20435;-71
2022/01/23 16:07:18;;;;;;;7.22;3.88;;;6.50;99.90;;;;;;5018199;28;19928;-72
2022/01/23 16:09:45;;;;;;;8.73;4.03;;;6.50;99.90;;;;;;5019308;28;20045;-71
2022/01/23 16:12:12;;;;;;;8.27;4.47;;;6.50;99.90;;;;;;5027059;28;20132;-73
2022/01/23 16:14:39;;;;;;;8.23;4.43;;;6.50;99.90;;;;;;5033532;28;20049;-74
2022/01/23 16:17:08;;;;;;;6.82;4.22;;;6.50;99.90;;;;;;5035076;28;20049;-73
2022/01/23 16:19:33;;;;;;;6.75;4.00;;;6.50;99.90;;;;;;5021873;28;20044;-73
2022/01/23 16:21:59;;;;;;;;;;;6.50;99.90;;;;;;5032101;28;20036;-73
2022/01/23 16:24:26;;;;;;;6.25;4.07;;;6.50;99.90;;;;;;5050815;28;19977;-75
2022/01/23 16:26:52;;;;;;;8.02;4.30;;;6.50;99.90;;;;;;5015368;28;20124;-81
2022/01/23 16:29:21;;;;;;;7.85;4.40;;;6.50;99.90;;;;;;5015616;28;20080;-78
2022/01/23 16:31:48;;;;;;;6.93;3.60;;;6.50;99.90;;;;;;5012335;28;20257;-73
2022/01/23 16:34:13;;;;;;;9.40;4.50;;;6.50;99.90;;;;;;5040381;28;20068;-73
2022/01/23 16:36:39;;;;;;;;;;;6.50;99.90;;;;;;5044525;28;20126;-73
2022/01/23 16:39:05;;;;;;;8.32;4.18;;;6.40;99.90;;;;;;5045533;28;20283;-72
2022/01/23 16:41:31;;;;;;;8.70;4.03;;;6.50;99.90;;;;;;5035686;28;20485;-72
2022/01/23 16:43:57;;;;;;;7.60;4.25;;;6.40;99.90;;;;;;5052143;28;20558;-81
2022/01/23 16:46:23;;;;;;;7.50;4.18;;;6.30;99.90;;;;;;5027518;28;20138;-70
2022/01/23 16:48:49;;;;;;;;;;;6.30;99.90;;;;;;5026963;28;20083;-77
2022/01/23 16:51:17;;;;;;;6.45;3.72;;;6.30;99.90;;;;;;5020574;28;19972;-79
2022/01/23 16:53:43;;;;;;;6.72;4.07;;;6.30;99.90;;;;;;5029906;28;20037;-75
2022/01/23 16:56:09;;;;;;;;;;;6.30;99.90;;;;;;5017576;28;20053;-74